Time;durP1;ratioP1;P1;durP2;ratioP2;P2;SDS_P1;SDS_P2;PMS_P1;PMS_P2;Temp;Humidity;BMP_temperature;BMP_pressure;BME280_temperature;BME280_humidity;BME280_pressure;Samples;Min_cycle;Max_cycle;Signal;HPM_P1;HPM_P2
2022/04/25 00:04:56;;;;;;;8.10;7.30;;;;;;;7.96;73.46;98190.91;447995;1267;141822;-61
2022/04/25 00:15:01;;;;;;;7.80;7.00;;;;;;;7.93;73.64;98188.17;448058;1267;143024;-61
2022/04/25 00:25:09;;;;;;;8.40;7.60;;;;;;;7.89;74.00;98185.05;438055;1267;141675;-60
2022/04/25 00:35:15;;;;;;;7.90;7.10;;;;;;;7.85;74.28;98187.23;436142;1267;145237;-60
2022/04/25 00:45:21;;;;;;;8.50;7.80;;;;;;;7.80;74.39;98182.55;435639;1267;142215;-62
2022/04/25 00:55:28;;;;;;;7.60;6.90;;;;;;;7.75;74.79;98173.88;447240;1267;144630;-60
2022/04/25 01:05:34;;;;;;;7.80;7.10;;;;;;;7.69;74.98;98170.47;446483;1267;142417;-60
2022/04/25 01:15:40;;;;;;;8.20;7.40;;;;;;;7.65;75.18;98165.87;439665;1267;141836;-61
2022/04/25 01:36:09;;;;;;;8.90;8.00;;;;;;;7.54;75.83;98169.97;445286;1267;142047;-60
2022/04/25 01:46:15;;;;;;;9.60;8.60;;;;;;;7.56;75.88;98165.51;447078;1266;142143;-60
2022/04/25 01:56:21;;;;;;;8.90;8.10;;;;;;;7.56;76.03;98171.60;447719;1269;146405;-60
2022/04/25 02:06:28;;;;;;;9.40;8.50;;;;;;;7.53;76.14;98162.75;447616;1269;141750;-60
2022/04/25 02:16:34;;;;;;;7.50;6.90;;;;;;;7.52;76.13;98163.05;446857;1269;143075;-61
2022/04/25 02:26:40;;;;;;;7.90;7.10;;;;;;;7.50;76.14;98167.71;447686;1269;141559;-60
2022/04/25 02:36:46;;;;;;;7.30;6.60;;;;;;;7.49;76.22;98166.89;447116;1267;142567;-60
2022/04/25 02:46:52;;;;;;;6.50;5.50;;;;;;;7.48;76.21;98161.78;437469;1268;142196;-59
2022/04/25 02:56:58;;;;;;;7.60;6.50;;;;;;;7.42;76.46;98165.53;445045;1267;142162;-60
2022/04/25 03:07:05;;;;;;;7.80;6.70;;;;;;;7.35;76.47;98165.48;442479;1267;141971;-60
2022/04/25 03:17:11;;;;;;;6.90;6.30;;;;;;;7.27;76.68;98180.84;447728;1267;141707;-60
2022/04/25 03:27:17;;;;;;;6.40;5.80;;;;;;;7.26;76.84;98188.55;447850;1267;141776;-60
2022/04/25 03:37:23;;;;;;;6.80;6.20;;;;;;;7.26;76.98;98203.02;447108;1267;142830;-60
2022/04/25 03:47:29;;;;;;;7.80;7.00;;;;;;;7.24;77.04;98203.14;447946;1265;141764;-60
2022/04/25 03:57:35;;;;;;;7.60;6.90;;;;;;;7.26;77.14;98208.59;442916;1267;141733;-59
2022/04/25 04:07:42;;;;;;;6.30;5.40;;;;;;;7.22;77.20;98217.04;430814;1267;142393;-59
2022/04/25 04:17:48;;;;;;;6.60;6.00;;;;;;;7.24;77.34;98218.85;436426;1268;141733;-60
2022/04/25 04:27:54;;;;;;;5.40;4.80;;;;;;;7.27;77.18;98228.21;438047;1267;141788;-58
2022/04/25 04:38:02;;;;;;;5.40;4.70;;;;;;;7.29;76.90;98252.42;447963;1266;142657;-61
2022/04/25 04:48:09;;;;;;;7.50;5.80;;;;;;;7.29;76.99;98254.69;447968;1266;141871;-61
2022/04/25 04:58:14;;;;;;;7.10;5.60;;;;;;;7.37;76.80;98265.31;447205;1267;141571;-61
2022/04/25 05:08:20;;;;;;;6.00;5.40;;;;;;;7.44;76.77;98272.93;447771;1267;142231;-62
2022/04/25 05:18:27;;;;;;;6.90;6.30;;;;;;;7.58;76.57;98285.04;448021;1267;141788;-61
2022/04/25 05:28:33;;;;;;;6.10;5.50;;;;;;;7.59;76.54;98280.60;434094;1267;142451;-60
2022/04/25 05:38:38;;;;;;;6.10;5.50;;;;;;;7.71;76.50;98277.98;447904;1267;141064;-61
2022/04/25 05:59:09;;;;;;;6.70;5.90;;;;;;;7.94;76.02;98291.81;447728;1267;196584;-60
2022/04/25 06:09:17;;;;;;;6.10;5.60;;;;;;;8.07;75.72;98294.52;447901;1267;141384;-60
2022/04/25 06:19:23;;;;;;;6.40;5.80;;;;;;;8.18;75.67;98293.36;442267;1266;141992;-61
2022/04/25 06:29:29;;;;;;;8.30;5.80;;;;;;;8.48;75.28;98296.91;448075;1267;183955;-63
2022/04/25 06:39:35;;;;;;;7.40;6.60;;;;;;;8.61;74.83;98299.09;447753;1269;141792;-62
2022/04/25 06:49:42;;;;;;;8.20;7.40;;;;;;;8.47;74.68;98314.08;437222;1269;144630;-61
2022/04/25 06:59:48;;;;;;;7.80;6.70;;;;;;;8.43;74.89;98318.39;431525;1269;141671;-60
2022/04/25 07:09:54;;;;;;;7.80;7.10;;;;;;;8.42;74.73;98325.73;436585;1267;142315;-63
2022/04/25 07:19:59;;;;;;;11.00;9.40;;;;;;;8.46;74.77;98328.41;448055;1267;146126;-62
2022/04/25 07:30:07;;;;;;;10.40;8.90;;;;;;;8.51;74.81;98339.74;442967;1267;142063;-58
2022/04/25 07:40:13;;;;;;;10.80;7.60;;;;;;;8.47;74.67;98349.66;447008;1269;142644;-60
2022/04/25 07:50:23;;;;;;;11.30;7.20;;;;;;;8.41;74.75;98365.05;442601;1267;146511;-62
2022/04/25 08:00:29;;;;;;;9.00;7.50;;;;;;;8.46;74.89;98370.30;443242;1267;141759;-61
2022/04/25 08:10:35;;;;;;;8.20;6.40;;;;;;;8.40;74.86;98388.30;446845;1266;142715;-62
2022/04/25 08:20:42;;;;;;;7.40;6.70;;;;;;;8.48;75.18;98394.42;433273;1267;142792;-63
2022/04/25 08:30:48;;;;;;;10.50;6.90;;;;;;;8.39;75.05;98405.80;434912;1270;141258;-63
2022/04/25 08:40:55;;;;;;;13.50;8.30;;;;;;;8.32;75.34;98419.77;435918;1268;144604;-61
2022/04/25 08:51:01;;;;;;;7.80;7.20;;;;;;;8.32;75.62;98426.41;442028;1267;141546;-65
2022/04/25 09:01:09;;;;;;;8.50;7.70;;;;;;;8.30;75.56;98431.80;437916;1265;142643;-65
2022/04/25 09:21:44;;;;;;;8.20;7.40;;;;;;;8.42;76.03;98447.63;432582;1268;141433;-61
2022/04/25 09:31:50;;;;;;;8.50;7.60;;;;;;;8.48;75.99;98456.33;433556;1267;141380;-61
2022/04/25 09:41:56;;;;;;;7.00;6.40;;;;;;;8.58;76.35;98464.48;435349;1270;142660;-61
2022/04/25 09:52:08;;;;;;;8.20;7.20;;;;;;;8.67;75.97;98476.02;436065;1270;141756;-62
2022/04/25 10:02:20;;;;;;;7.30;6.70;;;;;;;8.96;75.85;98480.89;447940;1267;142135;-63
2022/04/25 10:12:27;;;;;;;6.80;6.20;;;;;;;9.26;75.24;98487.92;439053;1268;143016;-61
2022/04/25 10:22:34;;;;;;;6.30;5.70;;;;;;;9.40;75.23;98493.81;431153;1270;142655;-63
2022/04/25 10:32:40;;;;;;;5.50;4.50;;;;;;;9.80;74.43;98489.71;443263;1267;142238;-61
2022/04/25 10:54:00;;;;;;;6.40;3.80;;;;;;;10.89;72.15;98500.98;439739;1268;142594;-62
2022/04/25 11:04:07;;;;;;;5.50;4.20;;;;;;;11.19;71.39;98510.77;440184;1267;163178;-59
2022/04/25 11:14:17;;;;;;;4.00;3.70;;;;;;;11.66;70.06;98511.08;431734;1268;142478;-62
2022/04/25 11:24:32;;;;;;;5.00;4.50;;;;;;;11.51;69.28;98512.50;434477;1268;142427;-62
2022/04/25 11:34:38;;;;;;;4.00;3.70;;;;;;;11.49;69.02;98524.75;447291;1268;186156;-64
2022/04/25 11:44:44;;;;;;;9.20;4.10;;;;;;;11.59;68.25;98541.23;447713;1268;142680;-68
2022/04/25 11:54:50;;;;;;;12.80;4.70;;;;;;;11.14;68.12;98546.73;437595;1267;259464;-65
2022/04/25 12:04:56;;;;;;;6.50;5.90;;;;;;;10.80;68.68;98562.00;431600;1268;142770;-69
2022/04/25 12:25:27;;;;;;;9.70;5.90;;;;;;;10.78;68.64;98573.63;435390;1268;142427;-72
2022/04/25 12:35:33;;;;;;;7.00;6.20;;;;;;;10.59;68.61;98581.67;447960;1268;143390;-69
2022/04/25 12:45:51;;;;;;;7.20;6.50;;;;;;;9.97;68.92;98593.33;435994;1268;141657;-62
2022/04/25 12:55:57;;;;;;;10.30;6.60;;;;;;;9.67;69.57;98597.30;438660;1268;141984;-70
2022/04/25 13:06:03;;;;;;;7.20;6.40;;;;;;;9.41;70.23;98602.90;431410;1268;141105;-66
2022/04/25 13:16:09;;;;;;;7.90;7.00;;;;;;;9.33;70.78;98610.51;436445;1268;142418;-65
2022/04/25 13:26:16;;;;;;;10.50;7.70;;;;;;;9.44;70.87;98613.01;438721;1267;141582;-74
2022/04/25 13:36:25;;;;;;;12.80;11.30;;;;;;;9.44;71.30;98614.22;447999;1268;141340;-67
2022/04/25 13:46:31;;;;;;;15.40;12.80;;;;;;;9.35;71.68;98634.95;447235;1268;143715;-66
2022/04/25 13:56:45;;;;;;;22.10;12.60;;;;;;;9.31;71.94;98643.67;448022;1267;143061;-64
2022/04/25 14:06:51;;;;;;;15.00;13.40;;;;;;;9.26;71.92;98654.14;447154;1267;143019;-61
2022/04/25 14:16:57;;;;;;;16.10;14.50;;;;;;;9.07;72.50;98669.14;447892;1268;142188;-62
2022/04/25 14:27:03;;;;;;;17.30;14.60;;;;;;;8.96;72.52;98677.97;435114;1268;142408;-62
2022/04/25 14:37:09;;;;;;;18.10;15.50;;;;;;;8.85;73.00;98690.04;447076;1268;142576;-63
2022/04/25 14:47:16;;;;;;;;;;;;;;;8.78;72.96;98697.87;448048;1268;142309;-65
2022/04/25 14:57:21;;;;;;;18.80;17.10;;;;;;;8.62;73.82;98707.69;448067;1267;128551;-64
2022/04/25 15:07:27;;;;;;;17.90;15.80;;;;;;;8.41;74.61;98716.80;441144;1268;142018;-62
2022/04/25 15:17:33;;;;;;;21.10;17.90;;;;;;;8.19;75.25;98730.34;434242;1270;143386;-60
2022/04/25 15:27:39;;;;;;;21.10;17.90;;;;;;;8.06;76.02;98751.94;436828;1267;142993;-66
2022/04/25 15:37:45;;;;;;;25.90;22.80;;;;;;;8.03;76.36;98764.55;438101;1267;142601;-66
2022/04/25 15:47:51;;;;;;;24.20;21.60;;;;;;;7.95;76.93;98767.30;446170;1266;144858;-65
2022/04/25 15:57:57;;;;;;;27.20;23.60;;;;;;;7.95;77.28;98768.17;447248;1268;142097;-64
2022/04/25 16:08:06;;;;;;;22.60;19.60;;;;;;;7.80;77.39;98775.92;439573;1268;141655;-66
2022/04/25 16:18:11;;;;;;;16.50;13.50;;;;;;;7.70;77.44;98777.51;433413;1268;141905;-63
2022/04/25 16:28:20;;;;;;;16.70;13.90;;;;;;;7.62;77.76;98784.63;432380;1268;184730;-67
2022/04/25 16:38:26;;;;;;;17.70;15.90;;;;;;;7.55;78.07;98798.13;432407;1267;142493;-62
2022/04/25 16:48:32;;;;;;;17.90;14.20;;;;;;;7.50;78.45;98807.31;431905;1267;141700;-65
2022/04/25 16:58:38;;;;;;;16.80;15.00;;;;;;;7.46;78.46;98813.84;431917;1267;141685;-64
2022/04/25 17:08:45;;;;;;;14.70;12.50;;;;;;;7.47;78.81;98824.94;432642;1267;142178;-63
2022/04/25 17:18:51;;;;;;;15.50;13.90;;;;;;;7.49;78.91;98829.67;430817;1268;142394;-64
2022/04/25 17:28:57;;;;;;;21.90;16.20;;;;;;;7.50;79.04;98833.41;432271;1268;141573;-63
